createdAt,value
2019-05-21T00:01:53.042Z,19.26
2019-05-21T00:04:28.286Z,19.23
2019-05-21T00:06:52.848Z,19.21
2019-05-21T00:09:21.895Z,19.21
2019-05-21T00:11:50.965Z,19.21
2019-05-21T00:14:20.043Z,19.20
2019-05-21T00:16:49.170Z,19.15
2019-05-21T00:19:18.238Z,19.15
2019-05-21T00:21:47.412Z,19.14
2019-05-21T00:24:16.486Z,19.10
2019-05-21T00:26:45.616Z,19.06
2019-05-21T00:29:50.407Z,19.05
2019-05-21T00:32:55.868Z,19.04
2019-05-21T00:36:01.068Z,18.85
2019-05-21T00:39:06.169Z,18.73
2019-05-21T00:42:02.230Z,18.65
2019-05-21T00:44:35.718Z,18.59
2019-05-21T00:47:05.241Z,18.62
2019-05-21T00:49:34.378Z,18.70
2019-05-21T00:52:08.824Z,18.77
2019-05-21T00:54:34.377Z,18.78
2019-05-21T00:57:03.493Z,18.84
2019-05-21T00:59:32.575Z,18.86
2019-05-21T01:02:01.693Z,18.89
2019-05-21T01:04:30.731Z,18.91
2019-05-21T01:06:59.830Z,18.93
2019-05-21T01:09:28.895Z,18.94
2019-05-21T01:11:57.952Z,18.94
2019-05-21T01:14:46.207Z,18.97
2019-05-21T01:17:15.351Z,18.93
2019-05-21T01:19:44.532Z,18.90
2019-05-21T01:22:13.751Z,18.91
2019-05-21T01:24:42.780Z,18.90
2019-05-21T01:27:11.841Z,18.90
2019-05-21T01:29:40.913Z,18.87
2019-05-21T01:32:09.986Z,18.86
2019-05-21T01:34:39.065Z,18.85
2019-05-21T01:37:08.188Z,18.84
2019-05-21T01:39:37.300Z,18.82
2019-05-21T01:42:06.360Z,18.74
2019-05-21T01:44:35.414Z,18.71
2019-05-21T01:47:04.486Z,18.67
2019-05-21T01:49:33.567Z,16.88
2019-05-21T01:52:02.739Z,18.63
2019-05-21T01:54:31.864Z,18.61
2019-05-21T01:57:01.005Z,18.62
2019-05-21T01:59:30.131Z,18.61
2019-05-21T02:01:59.212Z,18.60
2019-05-21T02:04:28.364Z,18.59
2019-05-21T02:06:57.487Z,18.59
2019-05-21T02:09:26.545Z,18.57
2019-05-21T02:11:55.578Z,18.55
2019-05-21T02:14:24.670Z,18.50
2019-05-21T02:16:53.679Z,18.51
2019-05-21T02:19:22.866Z,18.47
2019-05-21T02:21:51.925Z,18.46
2019-05-21T02:24:20.982Z,18.43
2019-05-21T02:26:50.019Z,18.43
2019-05-21T02:29:19.067Z,18.41
2019-05-21T02:31:48.106Z,18.41
2019-05-21T02:34:17.285Z,18.41
2019-05-21T02:36:46.339Z,18.35
2019-05-21T02:39:15.391Z,18.30
2019-05-21T02:41:44.414Z,18.27
2019-05-21T02:44:13.516Z,18.24
2019-05-21T02:46:42.611Z,18.22
2019-05-21T02:49:11.701Z,18.22
2019-05-21T02:51:40.762Z,18.22
2019-05-21T02:54:09.866Z,18.22
2019-05-21T02:56:38.989Z,18.22
2019-05-21T02:59:08.060Z,18.17
2019-05-21T03:01:43.238Z,18.18
2019-05-21T03:04:12.387Z,18.19
2019-05-21T03:06:41.498Z,18.16
2019-05-21T03:09:10.583Z,18.18
2019-05-21T03:11:39.671Z,18.22
2019-05-21T03:14:08.764Z,18.24
2019-05-21T03:16:37.861Z,18.23
2019-05-21T03:19:06.894Z,18.25
2019-05-21T03:21:35.945Z,18.26
2019-05-21T03:24:05.024Z,18.24
2019-05-21T03:26:34.268Z,18.21
2019-05-21T03:29:03.331Z,18.24
2019-05-21T03:31:32.538Z,18.23
2019-05-21T03:34:01.601Z,18.24
2019-05-21T03:36:33.929Z,18.26
2019-05-21T03:39:01.429Z,18.25
2019-05-21T03:41:30.541Z,18.24
2019-05-21T03:43:59.633Z,18.23
2019-05-21T03:46:28.667Z,18.21
2019-05-21T03:48:57.753Z,18.21
2019-05-21T03:51:26.957Z,18.20
2019-05-21T03:53:56.024Z,16.19
2019-05-21T03:56:25.185Z,18.18
2019-05-21T03:58:54.223Z,18.20
2019-05-21T04:01:23.395Z,18.20
2019-05-21T04:03:52.485Z,18.20
2019-05-21T04:06:21.795Z,18.22
2019-05-21T04:08:50.877Z,18.20
2019-05-21T04:11:19.980Z,18.19
2019-05-21T04:13:49.196Z,18.18
2019-05-21T04:16:25.147Z,18.19
2019-05-21T04:19:06.888Z,18.17
2019-05-21T04:21:36.018Z,18.15
2019-05-21T04:24:08.671Z,18.15
2019-05-21T04:26:36.022Z,18.17
2019-05-21T04:29:05.095Z,18.15
2019-05-21T04:31:34.217Z,18.15
2019-05-21T04:34:03.431Z,18.14
2019-05-21T04:36:32.491Z,18.15
2019-05-21T04:39:01.575Z,18.16
2019-05-21T04:41:30.807Z,18.15
2019-05-21T04:43:59.878Z,18.15
2019-05-21T04:46:28.935Z,18.18
2019-05-21T04:48:58.307Z,18.17
2019-05-21T04:51:27.396Z,18.18
2019-05-21T04:53:56.538Z,18.21
2019-05-21T04:56:28.756Z,18.21
2019-05-21T04:58:57.861Z,18.17
2019-05-21T05:01:27.088Z,18.19
2019-05-21T05:03:56.267Z,18.21
2019-05-21T05:06:25.355Z,18.23
2019-05-21T05:08:54.494Z,18.18
2019-05-21T05:11:23.634Z,18.23
2019-05-21T05:13:52.909Z,18.22
2019-05-21T05:16:21.943Z,18.22
2019-05-21T05:18:51.139Z,18.23
2019-05-21T05:21:20.240Z,18.22
2019-05-21T05:23:49.317Z,18.20
2019-05-21T05:26:18.438Z,18.20
2019-05-21T05:28:47.566Z,18.21
2019-05-21T05:31:17.172Z,18.24
2019-05-21T05:33:46.255Z,18.22
2019-05-21T05:36:15.362Z,18.22
2019-05-21T05:38:44.526Z,18.23
2019-05-21T05:41:13.702Z,18.26
2019-05-21T05:43:42.869Z,18.25
2019-05-21T05:46:11.965Z,18.24
2019-05-21T05:48:51.115Z,18.25
2019-05-21T05:51:20.285Z,18.25
2019-05-21T05:53:58.867Z,18.24
2019-05-21T05:56:29.015Z,18.26
2019-05-21T05:58:58.067Z,18.27
2019-05-21T06:01:28.463Z,18.30
2019-05-21T06:03:57.636Z,18.32
2019-05-21T06:06:26.747Z,18.31
2019-05-21T06:08:55.805Z,18.35
2019-05-21T06:11:28.214Z,18.38
2019-05-21T06:13:57.356Z,18.40
2019-05-21T06:16:26.507Z,18.45
2019-05-21T06:18:55.557Z,18.49
2019-05-21T06:21:24.717Z,18.50
2019-05-21T06:23:53.813Z,18.48
2019-05-21T06:26:22.867Z,18.42
2019-05-21T06:28:51.994Z,18.42
2019-05-21T06:31:21.157Z,18.42
2019-05-21T06:33:50.264Z,18.42
2019-05-21T06:36:19.437Z,18.41
2019-05-21T06:38:48.543Z,18.45
2019-05-21T06:41:17.608Z,18.46
2019-05-21T06:43:46.721Z,18.45
2019-05-21T06:46:15.861Z,18.47
2019-05-21T06:48:45.022Z,18.50
2019-05-21T06:51:14.220Z,18.53
2019-05-21T06:53:43.319Z,18.55
2019-05-21T06:56:12.447Z,18.59
2019-05-21T06:58:41.639Z,18.60
2019-05-21T07:01:10.798Z,18.62
2019-05-21T07:03:39.914Z,18.62
2019-05-21T07:06:09.131Z,18.64
2019-05-21T07:08:38.201Z,18.66
2019-05-21T07:11:07.669Z,18.68
2019-05-21T07:13:36.972Z,18.69
2019-05-21T07:16:07.018Z,18.65
2019-05-21T07:18:36.375Z,18.67
2019-05-21T07:21:06.091Z,18.65
2019-05-21T07:23:36.309Z,18.65
2019-05-21T07:26:05.607Z,18.65
2019-05-21T07:28:34.754Z,18.65
2019-05-21T07:31:04.304Z,18.65
2019-05-21T07:33:33.487Z,18.64
2019-05-21T07:36:13.881Z,18.62
2019-05-21T07:38:53.086Z,18.62
2019-05-21T07:41:20.184Z,18.64
2019-05-21T07:43:49.387Z,18.65
2019-05-21T07:46:18.915Z,18.68
2019-05-21T07:48:52.272Z,18.70
2019-05-21T07:51:28.233Z,18.69
2019-05-21T07:54:00.994Z,18.69
2019-05-21T07:56:30.452Z,18.69
2019-05-21T07:58:59.807Z,18.66
2019-05-21T08:01:39.918Z,18.61
2019-05-21T08:04:09.801Z,18.60
2019-05-21T08:06:40.370Z,18.57
2019-05-21T08:09:15.042Z,18.55
2019-05-21T08:11:47.441Z,18.53
2019-05-21T08:14:17.182Z,18.54
2019-05-21T08:16:46.406Z,18.55
2019-05-21T08:19:16.038Z,18.56
2019-05-21T08:21:45.371Z,18.53
2019-05-21T08:24:17.738Z,18.52
2019-05-21T08:27:07.023Z,18.51
2019-05-21T08:29:43.324Z,18.52
2019-05-21T08:32:28.698Z,18.54
2019-05-21T08:38:25.845Z,18.56
2019-05-21T08:40:57.271Z,18.60
2019-05-21T08:43:37.840Z,18.64
2019-05-21T08:46:14.336Z,18.65
2019-05-21T08:48:49.257Z,18.64
2019-05-21T08:51:18.907Z,18.67
2019-05-21T08:53:48.678Z,18.67
2019-05-21T08:56:23.795Z,18.67
2019-05-21T08:58:56.274Z,18.67
2019-05-21T09:01:33.311Z,18.71
2019-05-21T09:04:02.776Z,18.74
2019-05-21T09:06:32.226Z,18.80
2019-05-21T09:09:03.673Z,18.84
2019-05-21T09:11:41.323Z,18.88
2019-05-21T09:14:14.139Z,18.94
2019-05-21T09:16:43.956Z,19.00
2019-05-21T09:19:16.239Z,19.06
2019-05-21T09:21:47.738Z,19.14
2019-05-21T09:24:21.027Z,19.20
2019-05-21T09:26:53.785Z,19.25
2019-05-21T09:29:30.277Z,19.30
2019-05-21T09:32:04.715Z,19.29
2019-05-21T09:34:49.388Z,19.31
2019-05-21T09:37:43.080Z,19.33
2019-05-21T09:40:14.918Z,19.33
2019-05-21T09:42:45.617Z,19.34
2019-05-21T09:45:22.186Z,19.38
2019-05-21T09:48:00.868Z,19.33
2019-05-21T09:50:44.256Z,19.33
2019-05-21T09:53:17.363Z,19.34
2019-05-21T09:56:26.133Z,19.35
2019-05-21T09:59:02.603Z,19.33
2019-05-21T10:01:41.503Z,19.28
2019-05-21T10:04:11.915Z,19.30
2019-05-21T10:06:59.440Z,19.29
2019-05-21T10:09:32.602Z,19.27
2019-05-21T10:12:46.789Z,19.27
2019-05-21T10:15:20.696Z,19.23
2019-05-21T10:18:02.868Z,19.21
2019-05-21T10:20:35.777Z,19.21
2019-05-21T10:23:12.021Z,19.21
2019-05-21T10:25:47.913Z,19.15
2019-05-21T10:28:26.474Z,19.12
2019-05-21T10:30:56.700Z,19.09
2019-05-21T10:33:27.637Z,19.06
2019-05-21T10:35:59.472Z,18.99
2019-05-21T10:38:30.276Z,18.94
2019-05-21T10:41:00.675Z,18.88
2019-05-21T10:43:41.338Z,18.87
2019-05-21T10:46:19.834Z,18.89
2019-05-21T10:48:49.284Z,18.94
2019-05-21T10:51:19.082Z,18.97
2019-05-21T10:53:49.702Z,18.99
2019-05-21T10:56:21.928Z,19.00
2019-05-21T10:58:51.841Z,18.95
2019-05-21T11:01:34.634Z,18.96
2019-05-21T11:04:29.806Z,19.01
2019-05-21T11:07:01.525Z,19.04
2019-05-21T11:09:30.820Z,19.05
2019-05-21T11:12:00.020Z,19.04
2019-05-21T11:14:29.254Z,19.04
2019-05-21T11:17:01.427Z,19.04
2019-05-21T11:19:30.549Z,19.08
2019-05-21T11:21:59.737Z,19.09
2019-05-21T11:24:29.312Z,19.07
2019-05-21T11:27:08.433Z,19.06
2019-05-21T11:29:41.165Z,19.05
2019-05-21T11:32:20.145Z,19.05
2019-05-21T11:34:58.066Z,19.04
2019-05-21T11:37:31.855Z,18.97
2019-05-21T11:40:29.623Z,19.01
2019-05-21T11:43:42.095Z,19.06
2019-05-21T11:46:11.957Z,19.09
2019-05-21T11:48:53.533Z,19.11
2019-05-21T11:51:25.021Z,19.10
2019-05-21T11:54:20.213Z,19.12
2019-05-21T11:56:55.454Z,19.12
2019-05-21T11:59:24.558Z,19.14
2019-05-21T12:01:53.650Z,19.17
2019-05-21T12:04:22.967Z,19.17
2019-05-21T12:06:52.039Z,19.19
2019-05-21T12:09:21.461Z,19.23
2019-05-21T12:11:50.678Z,19.23
2019-05-21T12:14:37.375Z,19.24
2019-05-21T12:17:24.363Z,19.26
2019-05-21T12:20:00.218Z,19.32
2019-05-21T12:24:05.734Z,19.33
2019-05-21T12:26:16.332Z,19.38
2019-05-21T12:29:24.550Z,19.33
2019-05-21T12:32:20.661Z,19.36
2019-05-21T12:34:50.772Z,19.43
2019-05-21T12:37:20.158Z,19.46
2019-05-21T12:40:16.918Z,19.41
2019-05-21T12:42:53.221Z,19.40
2019-05-21T12:45:19.452Z,19.45
2019-05-21T12:47:50.745Z,19.43
2019-05-21T12:50:19.761Z,18.39
2019-05-21T12:52:54.950Z,19.38
2019-05-21T12:55:25.131Z,19.35
2019-05-21T12:57:54.291Z,19.36
2019-05-21T13:00:28.571Z,19.35
2019-05-21T13:03:05.444Z,19.37
2019-05-21T13:05:43.014Z,19.41
2019-05-21T13:08:12.358Z,19.41
2019-05-21T13:10:41.750Z,19.42
2019-05-21T13:13:15.986Z,19.45
2019-05-21T13:15:45.727Z,19.45
2019-05-21T13:18:25.610Z,19.43
2019-05-21T13:20:54.968Z,19.40
2019-05-21T13:23:26.544Z,19.36
2019-05-21T13:25:57.244Z,19.36
2019-05-21T13:28:30.053Z,19.34
2019-05-21T13:30:59.670Z,19.35
2019-05-21T13:33:29.144Z,19.33
2019-05-21T13:35:58.808Z,19.33
2019-05-21T13:38:28.266Z,19.31
2019-05-21T13:40:57.771Z,19.33
2019-05-21T13:43:27.432Z,19.29
2019-05-21T13:46:02.901Z,19.29
2019-05-21T13:48:47.030Z,19.31
2019-05-21T13:51:31.483Z,19.29
2019-05-21T13:54:01.375Z,19.30
2019-05-21T13:56:30.689Z,19.27
2019-05-21T13:58:59.869Z,19.23
2019-05-21T14:01:40.283Z,19.20
2019-05-21T14:04:00.399Z,18.32
2019-05-21T14:06:29.655Z,19.19
2019-05-21T14:08:58.782Z,19.18
2019-05-21T14:11:28.471Z,19.15
2019-05-21T14:13:57.605Z,19.15
2019-05-21T14:16:27.015Z,19.18
2019-05-21T14:19:00.848Z,19.19
2019-05-21T14:21:31.811Z,17.46
2019-05-21T14:24:01.330Z,19.15
2019-05-21T14:26:32.466Z,19.12
2019-05-21T14:29:02.973Z,19.09
2019-05-21T14:31:32.356Z,19.06
2019-05-21T14:34:01.539Z,19.02
2019-05-21T14:36:33.286Z,19.04
2019-05-21T14:39:06.235Z,19.03
2019-05-21T14:41:33.392Z,19.04
2019-05-21T14:44:02.913Z,19.05
2019-05-21T14:46:32.122Z,19.05
2019-05-21T14:49:01.413Z,19.07
2019-05-21T14:51:30.531Z,19.04
2019-05-21T14:54:03.743Z,19.04
2019-05-21T14:56:33.020Z,19.05
2019-05-21T14:59:02.335Z,19.04
2019-05-21T15:01:31.584Z,19.03
2019-05-21T15:04:01.108Z,19.05
2019-05-21T15:06:31.641Z,19.05
2019-05-21T15:09:01.076Z,19.07
2019-05-21T15:11:30.173Z,19.10
2019-05-21T15:13:59.591Z,19.10
2019-05-21T15:16:28.720Z,19.07
2019-05-21T15:18:57.882Z,19.04
2019-05-21T15:21:31.503Z,19.07
2019-05-21T15:24:17.640Z,19.09
2019-05-21T15:26:46.773Z,19.10
2019-05-21T15:29:15.950Z,19.12
2019-05-21T15:31:45.086Z,19.10
2019-05-21T15:34:14.525Z,19.08
2019-05-21T15:36:43.707Z,19.08
2019-05-21T15:39:12.882Z,19.09
2019-05-21T15:41:42.101Z,19.11
2019-05-21T15:44:11.319Z,19.13
2019-05-21T15:46:48.115Z,19.15
2019-05-21T15:49:11.305Z,19.13
2019-05-21T15:51:40.709Z,19.14
2019-05-21T15:54:09.948Z,19.13
2019-05-21T15:56:39.186Z,19.12
2019-05-21T15:59:08.294Z,19.08
2019-05-21T16:01:40.563Z,19.10
2019-05-21T16:04:08.267Z,19.07
2019-05-21T16:06:37.424Z,19.04
2019-05-21T16:09:09.212Z,19.06
2019-05-21T16:11:38.333Z,19.05
2019-05-21T16:14:07.450Z,19.06
2019-05-21T16:16:36.853Z,19.04
2019-05-21T16:19:06.303Z,19.03
2019-05-21T16:25:08.846Z,18.96
2019-05-21T16:27:42.870Z,18.83
2019-05-21T16:30:12.185Z,18.87
2019-05-21T16:32:44.199Z,18.87
2019-05-21T16:35:13.671Z,18.88
2019-05-21T16:37:45.221Z,18.86
2019-05-21T16:40:14.822Z,18.87
2019-05-21T16:42:44.135Z,18.90
2019-05-21T16:45:15.113Z,18.88
2019-05-21T16:47:51.910Z,18.90
2019-05-21T16:50:24.048Z,18.91
2019-05-21T16:52:53.576Z,18.88
2019-05-21T16:55:23.271Z,18.86
2019-05-21T16:57:57.908Z,18.85
2019-05-21T17:00:30.243Z,18.85
2019-05-21T17:03:12.253Z,18.85
2019-05-21T17:05:54.066Z,18.84
2019-05-21T17:08:35.756Z,18.82
2019-05-21T17:11:14.543Z,18.79
2019-05-21T17:16:38.338Z,18.76
2019-05-21T17:19:21.025Z,18.73
2019-05-21T17:21:51.232Z,18.71
2019-05-21T17:24:28.070Z,18.68
2019-05-21T17:27:11.493Z,18.67
2019-05-21T17:29:44.079Z,18.64
2019-05-21T17:32:27.505Z,18.60
2019-05-21T17:34:59.230Z,18.59
2019-05-21T17:37:36.639Z,18.55
2019-05-21T17:40:24.127Z,18.53
2019-05-21T17:42:51.461Z,18.50
2019-05-21T17:45:43.132Z,18.47
2019-05-21T17:51:26.803Z,18.40
2019-05-21T17:53:56.397Z,18.30
2019-05-21T17:56:29.283Z,18.32
2019-05-21T17:59:01.291Z,18.30
2019-05-21T18:01:33.367Z,18.32
2019-05-21T18:04:02.998Z,18.35
2019-05-21T18:06:33.068Z,18.36
2019-05-21T18:09:14.709Z,18.37
2019-05-21T18:11:47.047Z,18.39
2019-05-21T18:14:17.827Z,18.40
2019-05-21T18:16:47.496Z,18.39
2019-05-21T18:19:17.011Z,18.40
2019-05-21T18:21:46.819Z,18.37
2019-05-21T18:24:16.540Z,18.35
2019-05-21T18:26:46.533Z,18.36
2019-05-21T18:29:16.262Z,18.36
2019-05-21T18:31:46.166Z,18.37
2019-05-21T18:34:17.751Z,18.38
2019-05-21T18:36:47.335Z,18.40
2019-05-21T18:39:17.788Z,18.41
2019-05-21T18:41:49.308Z,18.40
2019-05-21T18:44:22.892Z,18.42
2019-05-21T18:46:54.179Z,18.41
2019-05-21T18:49:23.980Z,18.43
2019-05-21T18:51:57.670Z,18.43
2019-05-21T18:54:27.727Z,18.42
2019-05-21T18:56:58.339Z,18.42
2019-05-21T18:59:27.939Z,18.41
2019-05-21T19:01:57.956Z,18.41
2019-05-21T19:04:30.436Z,18.40
2019-05-21T19:07:00.001Z,18.38
2019-05-21T19:09:32.938Z,18.38
2019-05-21T19:12:02.649Z,18.35
2019-05-21T19:14:32.176Z,18.26
2019-05-21T19:17:01.572Z,18.21
2019-05-21T19:19:33.573Z,18.20
2019-05-21T19:22:03.142Z,18.18
2019-05-21T19:24:36.002Z,18.18
2019-05-21T19:27:12.863Z,18.17
2019-05-21T19:29:58.368Z,18.16
2019-05-21T19:32:45.979Z,18.18
2019-05-21T19:35:27.564Z,18.16
2019-05-21T19:38:00.316Z,18.15
2019-05-21T19:40:31.567Z,18.14
2019-05-21T19:43:01.913Z,18.13
2019-05-21T19:45:34.862Z,18.13
2019-05-21T19:48:29.135Z,18.14
2019-05-21T19:51:00.590Z,18.11
2019-05-21T19:53:33.341Z,18.08
2019-05-21T19:56:05.851Z,18.07
2019-05-21T19:58:35.345Z,18.03
2019-05-21T20:01:08.097Z,17.99
2019-05-21T20:03:37.660Z,17.96
2019-05-21T20:06:07.842Z,17.95
2019-05-21T20:08:41.027Z,17.94
2019-05-21T20:11:11.483Z,17.90
2019-05-21T20:13:40.706Z,17.90
2019-05-21T20:16:10.873Z,17.88
2019-05-21T20:18:40.096Z,17.85
2019-05-21T20:21:09.617Z,17.85
2019-05-21T20:23:38.884Z,17.85
2019-05-21T20:26:10.125Z,17.85
2019-05-21T20:28:39.327Z,17.85
2019-05-21T20:31:08.663Z,17.85
2019-05-21T20:33:37.827Z,17.85
2019-05-21T20:36:10.905Z,17.85
2019-05-21T20:38:40.045Z,17.84
2019-05-21T20:41:09.199Z,17.83
2019-05-21T20:43:38.436Z,17.82
2019-05-21T20:46:08.052Z,17.80
2019-05-21T20:48:37.552Z,17.78
2019-05-21T20:51:07.519Z,17.79
2019-05-21T20:53:36.765Z,17.78
2019-05-21T20:56:07.226Z,17.78
2019-05-21T20:58:39.482Z,17.79
2019-05-21T21:01:09.060Z,17.80
2019-05-21T21:03:38.312Z,17.80
2019-05-21T21:06:07.488Z,17.81
2019-05-21T21:08:37.683Z,17.80
2019-05-21T21:11:09.218Z,17.76
2019-05-21T21:13:39.176Z,17.75
2019-05-21T21:16:08.334Z,14.79
2019-05-21T21:18:37.661Z,17.70
2019-05-21T21:21:06.838Z,17.67
2019-05-21T21:23:36.547Z,17.61
2019-05-21T21:26:05.881Z,17.57
2019-05-21T21:28:34.926Z,17.52
2019-05-21T21:31:04.590Z,17.52
2019-05-21T21:33:33.971Z,17.52
2019-05-21T21:36:03.318Z,17.53
2019-05-21T21:38:34.400Z,17.55
2019-05-21T21:41:03.562Z,17.56
2019-05-21T21:43:32.652Z,17.54
2019-05-21T21:46:01.821Z,17.56
2019-05-21T21:48:31.003Z,17.56
2019-05-21T21:51:01.032Z,17.55
2019-05-21T21:53:30.396Z,17.53
2019-05-21T21:55:59.693Z,17.53
2019-05-21T21:58:28.848Z,17.53
2019-05-21T22:01:46.274Z,17.51
2019-05-21T22:04:16.518Z,17.43
2019-05-21T22:06:45.935Z,17.28
2019-05-21T22:09:32.039Z,17.23
2019-05-21T22:12:02.506Z,17.26
2019-05-21T22:14:32.726Z,17.24
2019-05-21T22:17:02.206Z,17.26
2019-05-21T22:19:31.961Z,17.28
2019-05-21T22:22:01.096Z,17.29
2019-05-21T22:24:30.523Z,17.32
2019-05-21T22:26:59.659Z,17.34
2019-05-21T22:29:29.089Z,17.32
2019-05-21T22:31:58.256Z,17.32
2019-05-21T22:34:27.993Z,17.32
2019-05-21T22:36:57.058Z,17.31
2019-05-21T22:39:28.281Z,17.28
2019-05-21T22:41:57.381Z,17.28
2019-05-21T22:44:26.494Z,17.26
2019-05-21T22:46:55.720Z,17.24
2019-05-21T22:49:24.810Z,17.22
2019-05-21T22:51:54.299Z,17.20
2019-05-21T22:54:23.957Z,17.17
2019-05-21T22:56:53.029Z,17.16
2019-05-21T22:59:22.377Z,17.13
2019-05-21T23:01:53.121Z,17.10
2019-05-21T23:04:22.205Z,17.11
2019-05-21T23:06:52.240Z,17.15
2019-05-21T23:09:21.314Z,17.13
2019-05-21T23:11:50.392Z,17.12
2019-05-21T23:14:19.462Z,17.08
2019-05-21T23:16:48.769Z,17.04
2019-05-21T23:19:18.853Z,17.06
2019-05-21T23:21:49.662Z,17.09
2019-05-21T23:24:21.409Z,17.10
2019-05-21T23:26:50.552Z,17.11
2019-05-21T23:29:19.620Z,17.11
2019-05-21T23:31:48.690Z,17.11
2019-05-21T23:34:18.986Z,17.11
2019-05-21T23:36:48.531Z,17.12
2019-05-21T23:39:22.224Z,17.14
2019-05-21T23:41:51.315Z,17.11
2019-05-21T23:44:20.694Z,17.11
2019-05-21T23:46:49.772Z,17.12
2019-05-21T23:49:18.842Z,17.12
2019-05-21T23:51:47.913Z,17.11
2019-05-21T23:54:17.153Z,17.08
2019-05-21T23:56:47.013Z,17.07
2019-05-21T23:59:16.249Z,17.07
